CEB261 RPMD-RPVM
Flight info
| Callsign | CEB261 |
|---|---|
| Flight time | N/A |
| Altitude | 28000 |
| Route | JOFER3R JOFER W8 BOHOL BOHOL3P |
| Aircraft | A20N/M-SDE2E3FGHIRWXY/LB1 |
Departure
| Time | 2026-05-01 10:48 |
|---|---|
| Airport | Francisco Bangoy International Airport (RPMD) |
Arrival
| Time | N/A |
|---|---|
| Airport | Mactan Cebu International Airport (RPVM) |
| Time | Latitude | Longitude | Altitude | Speed | Heading |
|---|---|---|---|---|---|
| 2026-05-01 10:17 | 7.12993 | 125.64596 | 113 ft | 0 kts | 319° |
| 2026-05-01 10:35 | 7.12986 | 125.64602 | 112 ft | 2 kts | 317° |
| 2026-05-01 10:35 | 7.12975 | 125.64612 | 112 ft | 2 kts | 320° |
| 2026-05-01 10:35 | 7.12964 | 125.64621 | 112 ft | 2 kts | 319° |
| 2026-05-01 10:36 | 7.12946 | 125.64637 | 112 ft | 2 kts | 317° |
| 2026-05-01 10:36 | 7.12938 | 125.64650 | 112 ft | 2 kts | 287° |
| 2026-05-01 10:36 | 7.12936 | 125.64665 | 112 ft | 2 kts | 264° |
| 2026-05-01 10:37 | 7.12940 | 125.64679 | 113 ft | 2 kts | 241° |
| 2026-05-01 10:37 | 7.12948 | 125.64690 | 113 ft | 0 kts | 228° |
| 2026-05-01 10:40 | 7.12947 | 125.64689 | 113 ft | 0 kts | 228° |
| 2026-05-01 10:40 | 7.12942 | 125.64683 | 113 ft | 1 kts | 229° |
| 2026-05-01 10:40 | 7.12930 | 125.64670 | 113 ft | 3 kts | 229° |
| 2026-05-01 10:40 | 7.12913 | 125.64650 | 113 ft | 4 kts | 230° |
| 2026-05-01 10:41 | 7.12906 | 125.64642 | 113 ft | 4 kts | 230° |
| 2026-05-01 10:41 | 7.12897 | 125.64631 | 113 ft | 5 kts | 229° |
| 2026-05-01 10:41 | 7.12837 | 125.64563 | 113 ft | 7 kts | 229° |
| 2026-05-01 10:42 | 7.12801 | 125.64520 | 113 ft | 8 kts | 230° |
| 2026-05-01 10:42 | 7.12760 | 125.64470 | 113 ft | 9 kts | 228° |
| 2026-05-01 10:42 | 7.12697 | 125.64452 | 113 ft | 10 kts | 155° |
| 2026-05-01 10:42 | 7.12634 | 125.64499 | 113 ft | 11 kts | 140° |
| 2026-05-01 10:43 | 7.12564 | 125.64545 | 113 ft | 11 kts | 173° |
| 2026-05-01 10:43 | 7.12494 | 125.64506 | 113 ft | 12 kts | 227° |
| 2026-05-01 10:43 | 7.12434 | 125.64439 | 113 ft | 13 kts | 229° |
| 2026-05-01 10:43 | 7.12372 | 125.64366 | 113 ft | 13 kts | 229° |
| 2026-05-01 10:44 | 7.12310 | 125.64294 | 113 ft | 14 kts | 229° |
| 2026-05-01 10:44 | 7.12244 | 125.64218 | 113 ft | 14 kts | 229° |
| 2026-05-01 10:44 | 7.12177 | 125.64140 | 113 ft | 15 kts | 229° |
| 2026-05-01 10:44 | 7.12109 | 125.64061 | 114 ft | 15 kts | 230° |
| 2026-05-01 10:45 | 7.12039 | 125.63978 | 114 ft | 15 kts | 230° |
| 2026-05-01 10:45 | 7.11969 | 125.63898 | 114 ft | 15 kts | 228° |
| 2026-05-01 10:45 | 7.11896 | 125.63814 | 114 ft | 16 kts | 229° |
| 2026-05-01 10:45 | 7.11824 | 125.63731 | 114 ft | 16 kts | 230° |
| 2026-05-01 10:46 | 7.11762 | 125.63651 | 113 ft | 11 kts | 248° |
| 2026-05-01 10:46 | 7.11758 | 125.63567 | 113 ft | 12 kts | 252° |
| 2026-05-01 10:46 | 7.11702 | 125.63538 | 113 ft | 7 kts | 153° |
| 2026-05-01 10:46 | 7.11684 | 125.63567 | 113 ft | 5 kts | 63° |
| 2026-05-01 10:47 | 7.11720 | 125.63609 | 113 ft | 17 kts | 48° |
| 2026-05-01 10:47 | 7.11966 | 125.63898 | 114 ft | 92 kts | 49° |
| 2026-05-01 10:47 | 7.12531 | 125.64551 | 113 ft | 154 kts | 49° |
| 2026-05-01 10:47 | 7.13317 | 125.65470 | 415 ft | 179 kts | 49° |
| 2026-05-01 10:48 | 7.14118 | 125.66399 | 1174 ft | 176 kts | 47° |
| 2026-05-01 10:48 | 7.15065 | 125.67078 | 1937 ft | 172 kts | 12° |
| 2026-05-01 10:48 | 7.16277 | 125.67042 | 2496 ft | 182 kts | 351° |
| 2026-05-01 10:48 | 7.17565 | 125.66767 | 2940 ft | 198 kts | 348° |
| 2026-05-01 10:49 | 7.18986 | 125.66466 | 3384 ft | 215 kts | 349° |
| 2026-05-01 10:49 | 7.20507 | 125.66182 | 3806 ft | 235 kts | 351° |
| 2026-05-01 10:49 | 7.22200 | 125.65900 | 4261 ft | 254 kts | 352° |
| 2026-05-01 10:49 | 7.23991 | 125.65622 | 4830 ft | 269 kts | 352° |
| 2026-05-01 10:50 | 7.25879 | 125.65340 | 5641 ft | 273 kts | 353° |
| 2026-05-01 10:50 | 7.27708 | 125.65071 | 6443 ft | 276 kts | 353° |
| 2026-05-01 10:50 | 7.29605 | 125.64793 | 7238 ft | 280 kts | 353° |
| 2026-05-01 10:50 | 7.31528 | 125.64514 | 8005 ft | 284 kts | 353° |
| 2026-05-01 10:51 | 7.33515 | 125.64227 | 8757 ft | 288 kts | 353° |
| 2026-05-01 10:51 | 7.35510 | 125.63939 | 9487 ft | 293 kts | 354° |
| 2026-05-01 10:51 | 7.37520 | 125.63650 | 10204 ft | 296 kts | 354° |
| 2026-05-01 10:51 | 7.39619 | 125.63349 | 10727 ft | 308 kts | 354° |
| 2026-05-01 10:52 | 7.41793 | 125.63037 | 11057 ft | 326 kts | 354° |
| 2026-05-01 10:52 | 7.44105 | 125.62700 | 11424 ft | 341 kts | 352° |
| 2026-05-01 10:52 | 7.46396 | 125.62026 | 12031 ft | 349 kts | 338° |
| 2026-05-01 10:52 | 7.48541 | 125.60792 | 12737 ft | 353 kts | 325° |
| 2026-05-01 10:53 | 7.50487 | 125.59269 | 13386 ft | 357 kts | 323° |
| 2026-05-01 10:53 | 7.52403 | 125.57695 | 13993 ft | 361 kts | 322° |
| 2026-05-01 10:53 | 7.54367 | 125.56081 | 14606 ft | 364 kts | 322° |
| 2026-05-01 10:53 | 7.56347 | 125.54467 | 15207 ft | 367 kts | 323° |
| 2026-05-01 10:54 | 7.58363 | 125.52835 | 15799 ft | 370 kts | 323° |
| 2026-05-01 10:54 | 7.60386 | 125.51204 | 16369 ft | 373 kts | 323° |
| 2026-05-01 10:54 | 7.62411 | 125.49574 | 16921 ft | 376 kts | 323° |
| 2026-05-01 10:54 | 7.64462 | 125.47926 | 17457 ft | 379 kts | 323° |
| 2026-05-01 10:55 | 7.66547 | 125.46256 | 17983 ft | 383 kts | 323° |
| 2026-05-01 10:55 | 7.68621 | 125.44597 | 18481 ft | 386 kts | 323° |
| 2026-05-01 10:55 | 7.70744 | 125.42896 | 18976 ft | 390 kts | 323° |
| 2026-05-01 10:55 | 7.72881 | 125.41182 | 19450 ft | 394 kts | 323° |
| 2026-05-01 10:56 | 7.75045 | 125.39444 | 19863 ft | 399 kts | 323° |
| 2026-05-01 10:56 | 7.77243 | 125.37678 | 20209 ft | 407 kts | 323° |
| 2026-05-01 10:56 | 7.79473 | 125.35884 | 20645 ft | 411 kts | 323° |
| 2026-05-01 10:56 | 7.81717 | 125.34076 | 21099 ft | 414 kts | 323° |
| 2026-05-01 10:57 | 7.83946 | 125.32268 | 21531 ft | 417 kts | 323° |
| 2026-05-01 10:57 | 7.86237 | 125.30410 | 21965 ft | 420 kts | 323° |
| 2026-05-01 10:57 | 7.88519 | 125.28565 | 22385 ft | 424 kts | 324° |
| 2026-05-01 10:57 | 7.90816 | 125.26714 | 22922 ft | 424 kts | 324° |
| 2026-05-01 10:58 | 7.93116 | 125.24865 | 23550 ft | 421 kts | 323° |
| 2026-05-01 10:58 | 7.95441 | 125.23068 | 24157 ft | 419 kts | 327° |
| 2026-05-01 10:58 | 7.97844 | 125.21455 | 24735 ft | 416 kts | 331° |
| 2026-05-01 10:58 | 8.00375 | 125.20005 | 25294 ft | 414 kts | 335° |
| 2026-05-01 10:59 | 8.02925 | 125.18671 | 25834 ft | 414 kts | 335° |
| 2026-05-01 10:59 | 8.05475 | 125.17353 | 26355 ft | 414 kts | 335° |
| 2026-05-01 10:59 | 8.08073 | 125.16011 | 26840 ft | 415 kts | 335° |
| 2026-05-01 10:59 | 8.10620 | 125.14692 | 27266 ft | 417 kts | 335° |
| 2026-05-01 11:00 | 8.13232 | 125.13341 | 27669 ft | 420 kts | 335° |
| 2026-05-01 11:00 | 8.15848 | 125.11987 | 27966 ft | 423 kts | 335° |
| 2026-05-01 11:00 | 8.18478 | 125.10621 | 28013 ft | 424 kts | 335° |
| 2026-05-01 11:01 | 8.23735 | 125.07880 | 28020 ft | 425 kts | 335° |
| 2026-05-01 11:01 | 8.28989 | 125.05137 | 28024 ft | 425 kts | 335° |
| 2026-05-01 11:02 | 8.34253 | 125.02390 | 28019 ft | 424 kts | 335° |
| 2026-05-01 11:02 | 8.39519 | 124.99651 | 28013 ft | 424 kts | 335° |
| 2026-05-01 11:03 | 8.44765 | 124.96917 | 28002 ft | 424 kts | 335° |
| 2026-05-01 11:03 | 8.47372 | 124.95557 | 27989 ft | 424 kts | 335° |
| 2026-05-01 11:03 | 8.50022 | 124.94173 | 27975 ft | 424 kts | 334° |
| 2026-05-01 11:03 | 8.52620 | 124.92815 | 27971 ft | 424 kts | 335° |
| 2026-05-01 11:04 | 8.55264 | 124.91431 | 27970 ft | 424 kts | 335° |
| 2026-05-01 11:04 | 8.57870 | 124.90069 | 27966 ft | 423 kts | 335° |
| 2026-05-01 11:04 | 8.60498 | 124.88695 | 27969 ft | 423 kts | 335° |
| 2026-05-01 11:04 | 8.63132 | 124.87317 | 27966 ft | 423 kts | 335° |
| 2026-05-01 11:05 | 8.65745 | 124.85948 | 27964 ft | 423 kts | 335° |
| 2026-05-01 11:05 | 8.68373 | 124.84572 | 27959 ft | 423 kts | 335° |
| 2026-05-01 11:05 | 8.70984 | 124.83204 | 27948 ft | 423 kts | 335° |
| 2026-05-01 11:05 | 8.73584 | 124.81841 | 27947 ft | 423 kts | 335° |
| 2026-05-01 11:06 | 8.76234 | 124.80453 | 27940 ft | 423 kts | 334° |
| 2026-05-01 11:06 | 8.78848 | 124.79083 | 27924 ft | 423 kts | 335° |
| 2026-05-01 11:06 | 8.81469 | 124.77712 | 27902 ft | 422 kts | 335° |
| 2026-05-01 11:07 | 8.86702 | 124.74979 | 27869 ft | 423 kts | 334° |
| 2026-05-01 11:07 | 8.89317 | 124.73611 | 27858 ft | 423 kts | 335° |
| 2026-05-01 11:07 | 8.91937 | 124.72237 | 27853 ft | 423 kts | 334° |
| 2026-05-01 11:07 | 8.94535 | 124.70874 | 27854 ft | 423 kts | 334° |
| 2026-05-01 11:08 | 8.97163 | 124.69495 | 27853 ft | 423 kts | 335° |
| 2026-05-01 11:08 | 8.99779 | 124.68123 | 27853 ft | 423 kts | 334° |
| 2026-05-01 11:08 | 9.05022 | 124.65379 | 27831 ft | 420 kts | 335° |
| 2026-05-01 11:09 | 9.07595 | 124.64035 | 27414 ft | 419 kts | 335° |
| 2026-05-01 11:09 | 9.10200 | 124.62673 | 26450 ft | 429 kts | 335° |
| 2026-05-01 11:09 | 9.12885 | 124.61273 | 25603 ft | 434 kts | 335° |
| 2026-05-01 11:10 | 9.18265 | 124.58464 | 24287 ft | 433 kts | 334° |
| 2026-05-01 11:10 | 9.20935 | 124.57065 | 23602 ft | 434 kts | 334° |
| 2026-05-01 11:10 | 9.23619 | 124.55656 | 22891 ft | 434 kts | 334° |
| 2026-05-01 11:10 | 9.26306 | 124.54245 | 22173 ft | 435 kts | 335° |
| 2026-05-01 11:11 | 9.28998 | 124.52831 | 21499 ft | 434 kts | 334° |
| 2026-05-01 11:11 | 9.31656 | 124.51433 | 20996 ft | 429 kts | 334° |
| 2026-05-01 11:11 | 9.34278 | 124.50053 | 20480 ft | 425 kts | 334° |
| 2026-05-01 11:11 | 9.36884 | 124.48682 | 19931 ft | 421 kts | 334° |
| 2026-05-01 11:12 | 9.39484 | 124.47313 | 19372 ft | 418 kts | 334° |
| 2026-05-01 11:12 | 9.42055 | 124.45959 | 18822 ft | 415 kts | 334° |
| 2026-05-01 11:12 | 9.44597 | 124.44619 | 18278 ft | 412 kts | 334° |
| 2026-05-01 11:12 | 9.47164 | 124.43265 | 17736 ft | 408 kts | 334° |
| 2026-05-01 11:13 | 9.49661 | 124.41949 | 17207 ft | 405 kts | 334° |
| 2026-05-01 11:13 | 9.52147 | 124.40640 | 16687 ft | 402 kts | 334° |
| 2026-05-01 11:13 | 9.54620 | 124.39337 | 16162 ft | 398 kts | 333° |
| 2026-05-01 11:13 | 9.56987 | 124.37882 | 15650 ft | 396 kts | 327° |
| 2026-05-01 11:14 | 9.59155 | 124.36159 | 15149 ft | 394 kts | 320° |
| 2026-05-01 11:14 | 9.61168 | 124.34282 | 14636 ft | 391 kts | 318° |
| 2026-05-01 11:14 | 9.63110 | 124.32398 | 14107 ft | 388 kts | 317° |
| 2026-05-01 11:14 | 9.65067 | 124.30496 | 13390 ft | 391 kts | 317° |
| 2026-05-01 11:15 | 9.67013 | 124.28614 | 12960 ft | 384 kts | 318° |
| 2026-05-01 11:15 | 9.68961 | 124.26743 | 12527 ft | 378 kts | 318° |
| 2026-05-01 11:15 | 9.70845 | 124.24937 | 12049 ft | 375 kts | 318° |
| 2026-05-01 11:15 | 9.72745 | 124.23120 | 11517 ft | 372 kts | 318° |
| 2026-05-01 11:16 | 9.74607 | 124.21341 | 10997 ft | 370 kts | 318° |
| 2026-05-01 11:16 | 9.76473 | 124.19558 | 10621 ft | 362 kts | 319° |
| 2026-05-01 11:16 | 9.78282 | 124.17828 | 10288 ft | 354 kts | 319° |
| 2026-05-01 11:16 | 9.80041 | 124.16146 | 10139 ft | 340 kts | 319° |
| 2026-05-01 11:17 | 9.81745 | 124.14518 | 9881 ft | 332 kts | 319° |
| 2026-05-01 11:17 | 9.83424 | 124.12917 | 9594 ft | 324 kts | 319° |
| 2026-05-01 11:17 | 9.85060 | 124.11356 | 9278 ft | 319 kts | 319° |
| 2026-05-01 11:17 | 9.86654 | 124.09834 | 8953 ft | 314 kts | 319° |
| 2026-05-01 11:18 | 9.88257 | 124.08302 | 8626 ft | 309 kts | 319° |
| 2026-05-01 11:18 | 9.89814 | 124.06815 | 8307 ft | 305 kts | 319° |
| 2026-05-01 11:18 | 9.91334 | 124.05362 | 7996 ft | 300 kts | 319° |
| 2026-05-01 11:18 | 9.92865 | 124.03899 | 7686 ft | 295 kts | 319° |
| 2026-05-01 11:19 | 9.94336 | 124.02493 | 7385 ft | 291 kts | 319° |
| 2026-05-01 11:19 | 9.95803 | 124.01090 | 7067 ft | 287 kts | 319° |
| 2026-05-01 11:19 | 9.97255 | 123.99701 | 6717 ft | 286 kts | 319° |
| 2026-05-01 11:19 | 9.98703 | 123.98317 | 6351 ft | 284 kts | 319° |
| 2026-05-01 11:20 | 10.00135 | 123.96946 | 5927 ft | 285 kts | 319° |
| 2026-05-01 11:20 | 10.01580 | 123.95564 | 5550 ft | 284 kts | 319° |
| 2026-05-01 11:20 | 10.03028 | 123.94179 | 5209 ft | 282 kts | 319° |
| 2026-05-01 11:20 | 10.04442 | 123.92825 | 4886 ft | 279 kts | 319° |
| 2026-05-01 11:21 | 10.05845 | 123.91483 | 4577 ft | 276 kts | 319° |
| 2026-05-01 11:21 | 10.07234 | 123.90154 | 4271 ft | 273 kts | 319° |
| 2026-05-01 11:21 | 10.08588 | 123.88814 | 3970 ft | 270 kts | 318° |
| 2026-05-01 11:21 | 10.09916 | 123.87458 | 3674 ft | 268 kts | 317° |
| 2026-05-01 11:22 | 10.11226 | 123.86124 | 3380 ft | 265 kts | 318° |
| 2026-05-01 11:22 | 10.12524 | 123.84811 | 3111 ft | 261 kts | 317° |
| 2026-05-01 11:22 | 10.13834 | 123.83591 | 3025 ft | 247 kts | 330° |
| 2026-05-01 11:22 | 10.15386 | 123.83160 | 2999 ft | 224 kts | 9° |
| 2026-05-01 11:23 | 10.16756 | 123.83746 | 2903 ft | 210 kts | 40° |
| 2026-05-01 11:23 | 10.17791 | 123.84758 | 2858 ft | 196 kts | 48° |
| 2026-05-01 11:23 | 10.18671 | 123.85739 | 2774 ft | 182 kts | 48° |
| 2026-05-01 11:23 | 10.19519 | 123.86654 | 2636 ft | 171 kts | 47° |
| 2026-05-01 11:24 | 10.20327 | 123.87489 | 2519 ft | 159 kts | 46° |
| 2026-05-01 11:24 | 10.21064 | 123.88233 | 2408 ft | 145 kts | 45° |
| 2026-05-01 11:24 | 10.22442 | 123.89611 | 2043 ft | 138 kts | 46° |
| 2026-05-01 11:25 | 10.23107 | 123.90276 | 1861 ft | 137 kts | 46° |
| 2026-05-01 11:25 | 10.24444 | 123.91615 | 1498 ft | 137 kts | 46° |
| 2026-05-01 11:25 | 10.24664 | 123.91835 | 1442 ft | 136 kts | 45° |